createdAt,value
2022-11-11T00:02:15.836Z,101893.89
2022-11-11T00:05:04.998Z,101893.48
2022-11-11T00:07:59.622Z,101890.46
2022-11-11T00:10:49.039Z,101897.45
2022-11-11T00:13:38.872Z,101897.86
2022-11-11T00:16:49.131Z,101894.89
2022-11-11T00:19:56.631Z,101893.91
2022-11-11T00:23:03.756Z,101861.33
2022-11-11T00:26:11.557Z,101895.63
2022-11-11T00:29:04.646Z,101896.42
2022-11-11T00:32:12.139Z,101898.18
2022-11-11T00:35:19.610Z,101901.89
2022-11-11T00:38:10.043Z,101907.92
2022-11-11T00:41:00.612Z,101904.00
2022-11-11T00:43:50.414Z,101912.34
2022-11-11T00:46:58.151Z,101910.17
2022-11-11T00:50:05.647Z,101909.39
2022-11-11T00:52:56.303Z,101914.58
2022-11-11T00:55:45.688Z,101906.61
2022-11-11T00:58:35.367Z,101902.35
2022-11-11T01:01:24.590Z,101887.95
2022-11-11T01:04:14.197Z,101881.85
2022-11-11T01:07:04.180Z,101880.14
2022-11-11T01:09:54.258Z,101889.23
2022-11-11T01:12:44.302Z,101896.65
2022-11-11T01:15:35.728Z,101889.73
2022-11-11T01:18:27.377Z,101888.08
2022-11-11T01:21:18.309Z,101869.31
2022-11-11T01:24:08.514Z,101894.10
2022-11-11T01:26:58.211Z,101897.35
2022-11-11T01:29:48.619Z,101906.96
2022-11-11T01:32:39.087Z,101910.48
2022-11-11T01:35:28.833Z,101909.05
2022-11-11T01:38:17.956Z,101910.96
2022-11-11T01:41:22.825Z,101915.97
2022-11-11T01:44:20.303Z,101918.65
2022-11-11T01:47:10.290Z,101907.91
2022-11-11T01:50:03.842Z,101907.63
2022-11-11T01:52:53.982Z,101901.96
2022-11-11T01:55:44.222Z,101895.89
2022-11-11T01:58:33.856Z,101898.35
2022-11-11T02:01:23.714Z,101878.64
2022-11-11T02:04:31.237Z,101869.47
2022-11-11T02:07:21.583Z,101856.23
2022-11-11T02:10:11.732Z,101854.81
2022-11-11T02:13:18.881Z,101862.74
2022-11-11T02:16:09.268Z,101856.83
2022-11-11T02:18:58.710Z,101860.11
2022-11-11T02:21:52.419Z,101859.08
2022-11-11T02:24:43.712Z,101862.41
2022-11-11T02:27:36.235Z,101864.14
2022-11-11T02:30:25.977Z,101861.14
2022-11-11T02:33:15.663Z,101858.29
2022-11-11T02:36:06.383Z,101861.52
2022-11-11T02:38:57.167Z,101861.19
2022-11-11T02:42:00.882Z,101874.70
2022-11-11T02:44:50.043Z,101892.84
2022-11-11T02:47:39.204Z,101901.68
2022-11-11T02:50:28.812Z,101901.09
2022-11-11T02:53:18.747Z,101903.63
2022-11-11T02:56:08.887Z,101902.92
2022-11-11T02:58:58.727Z,101915.61
2022-11-11T03:01:48.088Z,101922.95
2022-11-11T03:04:38.479Z,101922.19
2022-11-11T03:07:28.380Z,101918.60
2022-11-11T03:10:18.475Z,101912.58
2022-11-11T03:13:08.182Z,101909.32
2022-11-11T03:15:58.328Z,101912.44
2022-11-11T03:18:48.013Z,101907.04
2022-11-11T03:25:05.149Z,101898.58
2022-11-11T03:27:55.203Z,101920.42
2022-11-11T03:30:46.158Z,101926.02
2022-11-11T03:33:35.439Z,101924.30
2022-11-11T03:36:44.775Z,101908.83
2022-11-11T03:39:34.551Z,101928.29
2022-11-11T03:42:24.133Z,101936.99
2022-11-11T03:45:13.843Z,101942.61
2022-11-11T03:48:03.167Z,101946.81
2022-11-11T03:50:52.974Z,101947.80
2022-11-11T03:53:42.314Z,101941.41
2022-11-11T03:56:32.080Z,101942.02
2022-11-11T03:59:21.640Z,101934.67
2022-11-11T04:02:29.774Z,101936.48
2022-11-11T04:05:36.850Z,101927.60
2022-11-11T04:08:43.418Z,101927.45
2022-11-11T04:11:34.310Z,101931.91
2022-11-11T04:14:52.684Z,101932.66
2022-11-11T04:17:42.986Z,101921.61
2022-11-11T04:20:50.046Z,101894.04
2022-11-11T04:23:39.499Z,101907.08
2022-11-11T04:26:29.801Z,101903.30
2022-11-11T04:29:32.048Z,101876.05
2022-11-11T04:32:39.506Z,101890.41
2022-11-11T04:35:29.472Z,101881.77
2022-11-11T04:38:36.068Z,101890.03
2022-11-11T04:41:36.186Z,101891.42
2022-11-11T04:44:48.534Z,101901.23
2022-11-11T04:47:37.823Z,101906.23
2022-11-11T04:50:28.597Z,101916.95
2022-11-11T04:53:17.704Z,101929.29
2022-11-11T04:56:25.735Z,101929.98
2022-11-11T04:59:18.404Z,101925.16
2022-11-11T05:02:26.368Z,101925.64
2022-11-11T05:05:17.352Z,101928.29
2022-11-11T05:08:24.923Z,101918.70
2022-11-11T05:11:14.472Z,101914.76
2022-11-11T05:14:34.264Z,101917.92
2022-11-11T05:17:41.196Z,101922.75
2022-11-11T05:20:48.279Z,101925.70
2022-11-11T05:23:51.201Z,101930.33
2022-11-11T05:26:40.311Z,101925.61
2022-11-11T05:29:30.119Z,101926.93
2022-11-11T05:32:20.063Z,101934.58
2022-11-11T05:35:12.532Z,101940.58
2022-11-11T05:38:22.675Z,101941.44
2022-11-11T05:41:12.919Z,101950.77
2022-11-11T05:44:02.482Z,101941.60
2022-11-11T05:46:51.942Z,101947.27
2022-11-11T05:49:43.791Z,101940.35
2022-11-11T05:52:33.979Z,101947.05
2022-11-11T05:55:23.495Z,101960.31
2022-11-11T05:58:12.956Z,101967.27
2022-11-11T06:01:01.964Z,101973.89
2022-11-11T06:03:51.870Z,101966.95
2022-11-11T06:06:41.526Z,101961.70
2022-11-11T06:09:31.453Z,101959.72
2022-11-11T06:12:20.739Z,101953.27
2022-11-11T06:15:11.389Z,101950.79
2022-11-11T06:18:00.760Z,101955.52
2022-11-11T06:20:55.634Z,101955.80
2022-11-11T06:23:45.216Z,101963.27
2022-11-11T06:26:35.437Z,101959.98
2022-11-11T06:29:25.902Z,101950.04
2022-11-11T06:32:16.011Z,101936.73
2022-11-11T06:35:05.889Z,101946.54
2022-11-11T06:37:56.354Z,101949.27
2022-11-11T06:40:46.256Z,101947.90
2022-11-11T06:43:35.758Z,101931.01
2022-11-11T06:46:25.753Z,101937.91
2022-11-11T06:49:16.189Z,101934.88
2022-11-11T06:52:05.345Z,101928.33
2022-11-11T06:54:54.628Z,101934.59
2022-11-11T06:57:44.649Z,101933.91
2022-11-11T07:00:34.635Z,101916.23
2022-11-11T07:03:25.730Z,101941.50
2022-11-11T07:06:15.991Z,101940.27
2022-11-11T07:09:05.995Z,101935.54
2022-11-11T07:11:55.942Z,101937.15
2022-11-11T07:14:45.918Z,101944.55
2022-11-11T07:17:35.756Z,101951.50
2022-11-11T07:20:25.059Z,101936.98
2022-11-11T07:23:15.005Z,101946.43
2022-11-11T07:26:04.306Z,101948.04
2022-11-11T07:28:53.873Z,101951.92
2022-11-11T07:31:43.496Z,101961.29
2022-11-11T07:34:33.383Z,101965.90
2022-11-11T07:37:23.344Z,101967.70
2022-11-11T07:40:14.054Z,101962.51
2022-11-11T07:43:03.633Z,101961.79
2022-11-11T07:45:52.926Z,101967.39
2022-11-11T07:48:42.788Z,101973.14
2022-11-11T07:51:32.022Z,101966.45
2022-11-11T07:54:21.279Z,101966.08
2022-11-11T07:57:10.948Z,101963.65
2022-11-11T08:00:00.186Z,101964.98
2022-11-11T08:02:49.731Z,101965.61
2022-11-11T08:05:38.956Z,101956.65
2022-11-11T08:08:28.767Z,101972.15
2022-11-11T08:11:39.409Z,101969.11
2022-11-11T08:14:29.268Z,101980.84
2022-11-11T08:17:18.890Z,101979.39
2022-11-11T08:20:10.129Z,101977.83
2022-11-11T08:23:38.136Z,101977.19
2022-11-11T08:26:09.755Z,101978.12
2022-11-11T08:28:59.476Z,101973.73
2022-11-11T08:31:49.611Z,101979.84
2022-11-11T08:34:38.636Z,101995.64
2022-11-11T08:37:29.909Z,102002.03
2022-11-11T08:40:20.432Z,102007.09
2022-11-11T08:43:10.020Z,102010.11
2022-11-11T08:45:59.993Z,102005.95
2022-11-11T08:48:52.613Z,102002.80
2022-11-11T08:51:44.993Z,102006.69
2022-11-11T08:54:35.672Z,102007.83
2022-11-11T08:57:25.350Z,102017.56
2022-11-11T09:00:16.748Z,102015.98
2022-11-11T09:03:07.001Z,102017.33
2022-11-11T09:05:56.342Z,102014.28
2022-11-11T09:08:46.186Z,102032.91
2022-11-11T09:11:36.527Z,102038.34
2022-11-11T09:14:25.952Z,102030.53
2022-11-11T09:17:15.747Z,102030.65
2022-11-11T09:20:05.739Z,102023.74
2022-11-11T09:22:55.269Z,102022.16
2022-11-11T09:25:44.839Z,102024.20
2022-11-11T09:28:34.515Z,102028.41
2022-11-11T09:34:33.568Z,102028.27
2022-11-11T09:37:23.302Z,102037.33
2022-11-11T09:40:17.414Z,102041.07
2022-11-11T09:43:12.998Z,102032.75
2022-11-11T09:46:09.172Z,102032.60
2022-11-11T09:49:12.872Z,102034.30
2022-11-11T09:52:04.606Z,102049.62
2022-11-11T09:54:56.133Z,102050.05
2022-11-11T09:57:49.697Z,102047.65
2022-11-11T10:00:41.693Z,102030.82
2022-11-11T10:03:32.782Z,102041.86
2022-11-11T10:06:24.841Z,102034.99
2022-11-11T10:09:19.979Z,102032.91
2022-11-11T10:12:13.455Z,102027.20
2022-11-11T10:15:05.582Z,102013.02
2022-11-11T10:18:04.948Z,102013.66
2022-11-11T10:20:56.429Z,102008.41
2022-11-11T10:23:47.976Z,102005.95
2022-11-11T10:26:39.365Z,102006.70
2022-11-11T10:29:32.838Z,102005.95
2022-11-11T10:32:23.714Z,102001.97
2022-11-11T10:35:17.288Z,101998.19
2022-11-11T10:38:19.431Z,102002.79
2022-11-11T10:41:13.363Z,101994.05
2022-11-11T10:44:03.508Z,101995.40
2022-11-11T10:46:57.553Z,101995.58
2022-11-11T10:49:52.404Z,101996.80
2022-11-11T10:52:44.497Z,101999.46
2022-11-11T10:55:36.988Z,101996.18
2022-11-11T10:58:29.498Z,101996.46
2022-11-11T11:01:22.155Z,102002.41
2022-11-11T11:04:16.145Z,102002.77
2022-11-11T11:07:07.944Z,102000.44
2022-11-11T11:09:59.475Z,101994.19
2022-11-11T11:12:52.473Z,101999.42
2022-11-11T11:15:49.165Z,101999.17
2022-11-11T11:18:43.116Z,102005.84
2022-11-11T11:21:49.069Z,101994.36
2022-11-11T11:24:43.645Z,101994.33
2022-11-11T11:27:33.293Z,101980.79
2022-11-11T11:30:23.655Z,101990.31
2022-11-11T11:33:13.110Z,101991.33
2022-11-11T11:36:16.722Z,101992.10
2022-11-11T11:39:05.636Z,101986.05
2022-11-11T11:41:54.841Z,101984.11
2022-11-11T11:44:44.271Z,101984.83
2022-11-11T11:47:43.620Z,101985.27
2022-11-11T11:50:38.196Z,101985.83
2022-11-11T11:53:39.996Z,101985.00
2022-11-11T11:56:34.801Z,101990.30
2022-11-11T11:59:28.599Z,101994.67
2022-11-11T12:02:33.003Z,101996.96
2022-11-11T12:05:26.631Z,101992.77
2022-11-11T12:08:26.846Z,101995.41
2022-11-11T12:11:19.956Z,101998.48
2022-11-11T12:14:23.255Z,101998.83
2022-11-11T12:17:17.742Z,101999.71
2022-11-11T12:20:12.875Z,102000.48
2022-11-11T12:23:07.626Z,101991.86
2022-11-11T12:26:02.884Z,101993.73
2022-11-11T12:29:04.821Z,101986.80
2022-11-11T12:32:04.509Z,101966.83
2022-11-11T12:35:04.565Z,101986.30
2022-11-11T12:37:58.686Z,101990.28
2022-11-11T12:40:53.847Z,101997.69
2022-11-11T12:43:51.512Z,101999.43
2022-11-11T12:46:51.362Z,101996.84
2022-11-11T12:49:50.585Z,101996.33
2022-11-11T12:52:45.301Z,101996.02
2022-11-11T12:55:39.744Z,101990.73
2022-11-11T12:58:42.097Z,101992.36
2022-11-11T13:01:39.187Z,101987.92
2022-11-11T13:04:37.169Z,101988.23
2022-11-11T13:07:34.943Z,101993.48
2022-11-11T13:10:31.213Z,101993.91
2022-11-11T13:13:29.962Z,101999.24
2022-11-11T13:16:23.214Z,102002.50
2022-11-11T13:19:20.691Z,102003.06
2022-11-11T13:22:15.787Z,102001.07
2022-11-11T13:25:09.830Z,102003.65
2022-11-11T13:28:03.360Z,101990.30
2022-11-11T13:31:00.024Z,102003.27
2022-11-11T13:33:51.665Z,102012.83
2022-11-11T13:36:44.114Z,102015.33
2022-11-11T13:39:35.673Z,102014.51
2022-11-11T13:42:29.323Z,102014.83
2022-11-11T13:45:26.018Z,102015.30
2022-11-11T13:48:22.943Z,102018.27
2022-11-11T13:51:15.559Z,102012.52
2022-11-11T13:54:07.210Z,102011.81
2022-11-11T13:57:03.053Z,102011.13
2022-11-11T13:59:58.330Z,102005.23
2022-11-11T14:02:48.065Z,102001.97
2022-11-11T14:05:37.591Z,102006.84
2022-11-11T14:08:43.214Z,102008.98
2022-11-11T14:11:33.915Z,102008.58
2022-11-11T14:14:40.374Z,102009.44
2022-11-11T14:17:31.348Z,102012.83
2022-11-11T14:20:38.191Z,102016.21
2022-11-11T14:23:33.367Z,102014.41
2022-11-11T14:26:32.553Z,102014.31
2022-11-11T14:29:22.309Z,102012.18
2022-11-11T14:32:24.985Z,102009.64
2022-11-11T14:35:26.190Z,102009.61
2022-11-11T14:38:29.130Z,102011.83
2022-11-11T14:41:35.984Z,102015.23
2022-11-11T14:44:38.951Z,102017.05
2022-11-11T14:47:34.665Z,102018.88
2022-11-11T14:50:41.626Z,102004.08
2022-11-11T14:53:37.312Z,102012.08
2022-11-11T14:56:29.293Z,102020.36
2022-11-11T14:59:20.823Z,102027.70
2022-11-11T15:02:19.878Z,102026.69
2022-11-11T15:05:15.061Z,102030.57
2022-11-11T15:08:12.245Z,102033.44
2022-11-11T15:11:15.340Z,102034.15
2022-11-11T15:16:26.782Z,102029.91
2022-11-11T15:19:31.797Z,102035.64
2022-11-11T15:22:35.744Z,102035.30
2022-11-11T15:25:43.409Z,102032.91
2022-11-11T15:28:47.549Z,102032.48
2022-11-11T15:31:48.768Z,102035.68
2022-11-11T15:34:44.587Z,102035.28
2022-11-11T15:37:36.118Z,102032.73
2022-11-11T15:40:31.858Z,102031.27
2022-11-11T15:43:25.905Z,102035.14
2022-11-11T15:46:26.350Z,102029.63
2022-11-11T15:49:38.588Z,102031.88
2022-11-11T15:52:35.014Z,102035.66
2022-11-11T15:55:28.364Z,102042.59
2022-11-11T15:58:28.825Z,102051.63
2022-11-11T16:01:27.230Z,102049.27
2022-11-11T16:04:53.809Z,102048.87
2022-11-11T16:07:39.490Z,102051.51
2022-11-11T16:10:34.015Z,102053.60
2022-11-11T16:13:28.685Z,102055.42
2022-11-11T16:16:26.262Z,102058.76
2022-11-11T16:19:27.035Z,102064.95
2022-11-11T16:22:22.044Z,102068.77
2022-11-11T16:25:20.409Z,102071.84
2022-11-11T16:28:13.320Z,102072.31
2022-11-11T16:31:22.939Z,102073.29
2022-11-11T16:34:36.854Z,102073.13
2022-11-11T16:37:28.061Z,102062.88
2022-11-11T16:40:38.761Z,102073.45
2022-11-11T16:43:32.223Z,102081.36
2022-11-11T16:49:28.707Z,102082.61
2022-11-11T16:52:24.688Z,102086.80
2022-11-11T16:55:25.119Z,102088.38
2022-11-11T16:58:17.968Z,102084.65
2022-11-11T17:01:10.310Z,102089.15
2022-11-11T17:04:02.436Z,102087.06
2022-11-11T17:06:56.681Z,102089.05
2022-11-11T17:09:48.872Z,102087.67
2022-11-11T17:12:43.477Z,102090.05
2022-11-11T17:15:41.705Z,102098.02
2022-11-11T17:18:33.878Z,102093.23
2022-11-11T17:21:25.568Z,102094.48
2022-11-11T17:24:17.827Z,102097.84
2022-11-11T17:27:10.541Z,102101.98
2022-11-11T17:30:02.189Z,102099.77
2022-11-11T17:32:54.327Z,102098.67
2022-11-11T17:35:53.098Z,102097.55
2022-11-11T17:38:46.281Z,102097.86
2022-11-11T17:41:38.950Z,102092.26
2022-11-11T17:44:31.344Z,102094.14
2022-11-11T17:47:25.026Z,102093.77
2022-11-11T17:50:17.366Z,102100.06
2022-11-11T17:53:23.468Z,102096.13
2022-11-11T17:56:12.954Z,102095.05
2022-11-11T17:59:06.164Z,102096.42
2022-11-11T18:01:57.357Z,102089.86
2022-11-11T18:04:48.407Z,102089.00
2022-11-11T18:07:44.728Z,102087.39
2022-11-11T18:10:36.560Z,102089.37
2022-11-11T18:13:27.952Z,102093.46
2022-11-11T18:16:22.357Z,102077.47
2022-11-11T18:19:13.644Z,102092.70
2022-11-11T18:22:05.480Z,102096.73
2022-11-11T18:24:57.855Z,102096.96
2022-11-11T18:27:49.003Z,102088.10
2022-11-11T18:30:41.672Z,102090.73
2022-11-11T18:33:34.022Z,102088.13
2022-11-11T18:36:25.096Z,102094.15
2022-11-11T18:39:16.853Z,102095.23
2022-11-11T18:42:07.883Z,102097.52
2022-11-11T18:44:59.965Z,102104.54
2022-11-11T18:47:52.454Z,102098.41
2022-11-11T18:50:45.418Z,102080.11
2022-11-11T18:53:39.150Z,102098.43
2022-11-11T18:56:33.063Z,102095.71
2022-11-11T18:59:25.671Z,102100.23
2022-11-11T19:02:16.475Z,102105.39
2022-11-11T19:05:10.346Z,102108.17
2022-11-11T19:08:01.626Z,102110.46
2022-11-11T19:10:54.022Z,102107.53
2022-11-11T19:13:45.474Z,102113.52
2022-11-11T19:16:37.874Z,102116.62
2022-11-11T19:19:29.397Z,102118.05
2022-11-11T19:22:21.146Z,102117.65
2022-11-11T19:25:12.929Z,102099.05
2022-11-11T19:28:05.076Z,102128.14
2022-11-11T19:30:56.510Z,102129.55
2022-11-11T19:33:54.300Z,102135.09
2022-11-11T19:36:47.448Z,102137.58
2022-11-11T19:39:39.326Z,102136.44
2022-11-11T19:42:32.516Z,102135.21
2022-11-11T19:45:25.875Z,102130.50
2022-11-11T19:48:18.954Z,102136.08
2022-11-11T19:51:13.876Z,102133.74
2022-11-11T19:54:07.498Z,102137.70
2022-11-11T19:56:59.456Z,102139.45
2022-11-11T19:59:52.667Z,102141.16
2022-11-11T20:02:45.711Z,102152.40
2022-11-11T20:05:41.276Z,102157.18
2022-11-11T20:08:35.495Z,102160.16
2022-11-11T20:11:29.193Z,102143.23
2022-11-11T20:14:22.323Z,102166.90
2022-11-11T20:17:19.716Z,102168.86
2022-11-11T20:20:15.072Z,102169.64
2022-11-11T20:23:11.947Z,102171.42
2022-11-11T20:26:09.510Z,102176.45
2022-11-11T20:29:02.913Z,102177.92
2022-11-11T20:31:56.320Z,102184.75
2022-11-11T20:34:49.805Z,102163.53
2022-11-11T20:37:44.878Z,102187.78
2022-11-11T20:40:37.988Z,102186.47
2022-11-11T20:43:31.411Z,102184.02
2022-11-11T20:46:23.774Z,102186.14
2022-11-11T20:49:15.913Z,102190.42
2022-11-11T20:52:07.233Z,102191.47
2022-11-11T20:54:59.038Z,102192.06
2022-11-11T20:57:50.405Z,102185.66
2022-11-11T21:00:43.059Z,102185.76
2022-11-11T21:03:34.107Z,102186.52
2022-11-11T21:06:26.966Z,102178.20
2022-11-11T21:09:17.751Z,102178.55
2022-11-11T21:12:08.936Z,102178.89
2022-11-11T21:15:00.054Z,102175.54
2022-11-11T21:17:50.816Z,102167.73
2022-11-11T21:20:42.141Z,102181.02
2022-11-11T21:23:32.817Z,102160.39
2022-11-11T21:26:25.207Z,102175.25
2022-11-11T21:29:16.771Z,102176.38
2022-11-11T21:32:10.175Z,102170.80
2022-11-11T21:35:02.587Z,102170.73
2022-11-11T21:37:54.467Z,102167.85
2022-11-11T21:40:45.112Z,102164.33
2022-11-11T21:43:37.502Z,102162.44
2022-11-11T21:46:29.592Z,102166.91
2022-11-11T21:49:21.195Z,102164.94
2022-11-11T21:52:12.401Z,102164.11
2022-11-11T21:55:03.402Z,102164.91
2022-11-11T21:57:54.736Z,102167.55
2022-11-11T22:00:45.758Z,102169.20
2022-11-11T22:03:38.057Z,102162.91
2022-11-11T22:06:29.844Z,102162.09
2022-11-11T22:09:21.215Z,102164.73
2022-11-11T22:12:12.095Z,102164.50
2022-11-11T22:15:03.403Z,102166.30
2022-11-11T22:17:57.013Z,102161.35
2022-11-11T22:20:48.245Z,102165.77
2022-11-11T22:23:40.132Z,102162.44
2022-11-11T22:26:35.223Z,102161.39
2022-11-11T22:29:26.394Z,102161.39
2022-11-11T22:32:17.708Z,102160.90
2022-11-11T22:35:09.101Z,102162.02
2022-11-11T22:37:59.838Z,102160.44
2022-11-11T22:40:50.624Z,102158.95
2022-11-11T22:43:59.098Z,102162.23
2022-11-11T22:46:50.803Z,102160.60
2022-11-11T22:49:41.994Z,102163.91
2022-11-11T22:52:33.276Z,102163.15
2022-11-11T22:55:23.690Z,102162.00
2022-11-11T22:58:14.201Z,102157.33
2022-11-11T23:01:11.620Z,102158.08
2022-11-11T23:04:05.373Z,102155.64
2022-11-11T23:06:56.520Z,102151.52
2022-11-11T23:09:46.968Z,102152.11
2022-11-11T23:12:37.542Z,102150.57
2022-11-11T23:15:28.379Z,102151.21
2022-11-11T23:18:19.196Z,102154.39
2022-11-11T23:21:12.188Z,102152.64
2022-11-11T23:24:02.703Z,102157.17
2022-11-11T23:26:53.551Z,102155.01
2022-11-11T23:29:48.480Z,102154.11
2022-11-11T23:32:42.274Z,102154.45
2022-11-11T23:35:33.413Z,102155.05
2022-11-11T23:38:24.224Z,102152.12
2022-11-11T23:41:16.021Z,102150.45
2022-11-11T23:44:08.936Z,102152.72
2022-11-11T23:46:59.552Z,102151.68
2022-11-11T23:49:50.374Z,102147.20
2022-11-11T23:52:41.378Z,102149.46
2022-11-11T23:55:32.700Z,102149.19
2022-11-11T23:58:24.239Z,102149.02
